METAR Data
IDs: Format: Raw Decoded Include TAF

Data at: 0844 UTC 01 Aug 2021

LTBA 010820Z 13007KT 100V170 CAVOK 32/18 Q1012 NOSIG RMK RWY23 VRB07KT